Oklahoma City, OK (73146)

9:13 PM CST on February 28, 2015 (GMT -0600)
Heritage Hills | Change Station
CLOSE
Current Station
Personal Weather Station
Location: Oklahoma City, OK
Elevation: 1280 ft
Nearby Weather Stations
Active Advisory: Winter Weather Advisory Active Notice: Local Storm Report

Elev 1280 ft 35.48 °N, 97.52 °W | Updated 9 minutes ago

Overcast
Overcast
25.7 °F
Feels Like 26 °F
N
2.0
Wind Variable Wind from NNE
Gusts 2.0 mph

Today
High -- | Low -- °F
--% Chance of Precip.
Yesterday
High -- | Low -- °F
Precip. -- in
7:01 AM 6:24 PM
Waxing Gibbous, 82% visible
Pressure 30.38 in
Visibility 2.0 miles
Clouds Overcast 500 ft
Windchill 26 °F
Dew Point 23 °F
Humidity 88%
Rainfall 0.00 in
Snow Depth Not available.
UV 0 out of 12
Pollen .80 out of 12
Air Quality Not available.
Flu Activity Not available.
METAR KPWA 010253Z 06003KT 2SM BR OVC005 M03/M04 A3033 RMK AO2 SLP286 T10331044 51008 $

More Conditions Fewer Conditions

Pressure 30.38 in
Visibility 2.0 miles
Clouds Overcast 500 ft
Windchill 26 °F
Dew Point 23 °F
Humidity 88%
Rainfall 0.00 in
Snow Depth Not available.
UV 0 out of 12
Pollen .80 out of 12
Air Quality Not available.
Flu Activity Not available.
METAR KPWA 010253Z 06003KT 2SM BR OVC005 M03/M04 A3033 RMK AO2 SLP286 T10331044 51008 $

More Conditions Fewer Conditions

10-Day Weather Forecast

Almanac

Astronomy

Feb. 28, 2015 Rise Set
Actual Time
Civil Twilight
Nautical Twilight
Astronomical Twilight
Moon
Length of Visible Light
Length of Day
Tomorrow will be .
, % of the Moon is Illuminated

Today's Extremes

State Highs State Lows

Community

WunderPhotos

Upload Photos

1,801,280 photos uploaded!

WunderBlogs® & News

Nearby

Air Quality

  Air Quality AQ Index Pollutant
Not available.

Snow Depth

Station Depth Elevation

Earthquake Activity

City Distance Mag. Time & Date
Minimum magnitude displayed is 2.5.

Coastal Water Temperatures

Place Temperature

Nearby Weather Stations

Winter Weather Advisory
Statement as of 3:13 PM CST on February 28, 2015

... Winter Weather Advisory now in effect until 6 am CST Sunday...

The Winter Weather Advisory is now in effect until 6 am CST
Sunday.

* Main impact: patchy freezing drizzle and passing light freezing
rain showers will be possible through the night.

* Roads and walkways: roads and walkways will be slick and
hazardous.

Precautionary/preparedness actions...

Be careful if you have to travel. Even small amounts of ice and
snow can make roads and sidewalks slick and dangerous.